createdAt,value
2022-12-08T00:00:17.641Z,100252.69
2022-12-08T00:02:46.659Z,100259.72
2022-12-08T00:05:33.059Z,100251.72
2022-12-08T00:08:21.234Z,100251.84
2022-12-08T00:10:50.323Z,100247.72
2022-12-08T00:13:19.381Z,100246.81
2022-12-08T00:15:48.313Z,100243.22
2022-12-08T00:18:17.483Z,100237.25
2022-12-08T00:20:46.533Z,100231.53
2022-12-08T00:23:17.094Z,100225.16
2022-12-08T00:25:46.215Z,100225.81
2022-12-08T00:28:15.203Z,100221.81
2022-12-08T00:30:44.678Z,100221.28
2022-12-08T00:33:13.895Z,100210.94
2022-12-08T00:35:43.383Z,100198.97
2022-12-08T00:38:12.563Z,100210.66
2022-12-08T00:40:46.897Z,100204.81
2022-12-08T00:43:16.435Z,100202.78
2022-12-08T00:45:45.543Z,100196.31
2022-12-08T00:48:14.551Z,100191.53
2022-12-08T00:50:43.576Z,100203.88
2022-12-08T00:53:12.544Z,100194.28
2022-12-08T00:55:41.589Z,100187.00
2022-12-08T00:58:12.008Z,100197.91
2022-12-08T01:00:42.312Z,100201.63
2022-12-08T01:03:11.744Z,100197.25
2022-12-08T01:05:41.141Z,100186.50
2022-12-08T01:08:10.508Z,100193.38
2022-12-08T01:10:40.772Z,100193.38
2022-12-08T01:13:11.478Z,100183.56
2022-12-08T01:15:40.507Z,100188.59
2022-12-08T01:18:09.504Z,100198.41
2022-12-08T01:20:38.554Z,100183.28
2022-12-08T01:23:07.621Z,100187.00
2022-12-08T01:25:36.745Z,100183.56
2022-12-08T01:28:06.835Z,100180.09
2022-12-08T01:30:40.194Z,100176.63
2022-12-08T01:33:09.345Z,100185.13
2022-12-08T01:35:40.493Z,100183.28
2022-12-08T01:38:09.447Z,100185.13
2022-12-08T01:40:38.376Z,100179.59
2022-12-08T01:43:07.555Z,100172.19
2022-12-08T01:45:38.234Z,100179.59
2022-12-08T01:48:12.723Z,100180.53
2022-12-08T01:50:44.330Z,100174.28
2022-12-08T01:53:18.104Z,100172.03
2022-12-08T01:55:53.993Z,100172.69
2022-12-08T01:58:28.390Z,100178.41
2022-12-08T02:00:58.821Z,100174.72
2022-12-08T02:03:32.900Z,100174.72
2022-12-08T02:06:03.414Z,100174.56
2022-12-08T02:08:33.043Z,100171.06
2022-12-08T02:11:02.040Z,100176.81
2022-12-08T02:13:32.823Z,100172.84
2022-12-08T02:16:11.515Z,100166.63
2022-12-08T02:19:22.380Z,100173.50
2022-12-08T02:21:53.864Z,100179.88
2022-12-08T02:24:32.801Z,100169.91
2022-12-08T02:27:29.356Z,100176.81
2022-12-08T02:30:25.300Z,100167.78
2022-12-08T02:33:17.868Z,100159.31
2022-12-08T02:35:57.810Z,100165.03
2022-12-08T02:38:45.768Z,100167.03
2022-12-08T02:41:31.966Z,100164.50
2022-12-08T02:44:07.449Z,100153.72
2022-12-08T02:46:41.539Z,100143.41
2022-12-08T02:49:14.724Z,100145.41
2022-12-08T02:51:45.194Z,100148.59
2022-12-08T02:54:15.632Z,100152.28
2022-12-08T02:57:04.279Z,100149.28
2022-12-08T02:59:44.197Z,100148.50
2022-12-08T03:02:56.473Z,100138.91
2022-12-08T03:05:40.222Z,100136.91
2022-12-08T03:08:21.438Z,100135.72
2022-12-08T03:10:58.365Z,100126.06
2022-12-08T03:13:34.856Z,100135.47
2022-12-08T03:16:08.584Z,100128.31
2022-12-08T03:18:43.950Z,100124.22
2022-12-08T03:21:16.152Z,100121.03
2022-12-08T03:23:49.419Z,100112.25
2022-12-08T03:26:24.092Z,100112.78
2022-12-08T03:28:53.118Z,100119.19
2022-12-08T03:31:26.213Z,100109.75
2022-12-08T03:33:58.064Z,100113.31
2022-12-08T03:36:27.845Z,100111.88
2022-12-08T03:38:58.453Z,100121.03
2022-12-08T03:41:27.912Z,100112.78
2022-12-08T03:43:59.604Z,100116.00
2022-12-08T03:48:59.122Z,100106.81
2022-12-08T03:51:28.426Z,100110.50
2022-12-08T03:53:58.846Z,100097.66
2022-12-08T03:56:31.127Z,100100.69
2022-12-08T03:59:00.570Z,100104.38
2022-12-08T04:01:29.862Z,100103.72
2022-12-08T04:03:59.093Z,100099.44
2022-12-08T04:06:28.207Z,100092.81
2022-12-08T04:08:58.747Z,100093.72
2022-12-08T04:11:27.754Z,100087.75
2022-12-08T04:13:56.831Z,100084.31
2022-12-08T04:16:28.095Z,100091.88
2022-12-08T04:18:57.180Z,100092.41
2022-12-08T04:21:26.242Z,100090.53
2022-12-08T04:24:00.816Z,100085.22
2022-12-08T04:26:32.115Z,100089.59
2022-12-08T04:29:01.160Z,100073.13
2022-12-08T04:31:30.461Z,100085.06
2022-12-08T04:33:59.464Z,100084.56
2022-12-08T04:36:28.502Z,100087.75
2022-12-08T04:38:57.701Z,100088.44
2022-12-08T04:41:27.877Z,100089.09
2022-12-08T04:43:58.338Z,100083.38
2022-12-08T04:46:27.643Z,100080.88
2022-12-08T04:48:57.222Z,100083.13
2022-12-08T04:51:27.476Z,100086.41
2022-12-08T04:53:56.466Z,100082.28
2022-12-08T04:56:25.638Z,100083.00
2022-12-08T04:58:54.735Z,100085.03
2022-12-08T05:01:25.199Z,100079.84
2022-12-08T05:03:54.216Z,100083.47
2022-12-08T05:06:24.584Z,100085.25
2022-12-08T05:08:53.676Z,100087.94
2022-12-08T05:11:22.740Z,100077.59
2022-12-08T05:13:51.842Z,100082.38
2022-12-08T05:16:21.900Z,100081.56
2022-12-08T05:18:52.401Z,100080.25
2022-12-08T05:21:21.550Z,100077.75
2022-12-08T05:23:50.606Z,100060.25
2022-12-08T05:26:20.040Z,100075.81
2022-12-08T05:28:49.293Z,100074.63
2022-12-08T05:31:18.609Z,100075.72
2022-12-08T05:33:48.391Z,100077.06
2022-12-08T05:36:19.470Z,100074.78
2022-12-08T05:38:48.859Z,100074.28
2022-12-08T05:41:20.209Z,100074.72
2022-12-08T05:43:50.309Z,100071.50
2022-12-08T05:46:20.211Z,100063.03
2022-12-08T05:48:49.328Z,100072.84
2022-12-08T05:51:22.760Z,100067.41
2022-12-08T05:53:52.911Z,100059.47
2022-12-08T05:56:22.650Z,100063.72
2022-12-08T05:58:51.991Z,100063.03
2022-12-08T06:01:23.833Z,100057.41
2022-12-08T06:03:53.286Z,100058.16
2022-12-08T06:06:23.964Z,100059.84
2022-12-08T06:08:53.171Z,100059.34
2022-12-08T06:11:24.667Z,100063.06
2022-12-08T06:13:54.607Z,100059.16
2022-12-08T06:16:24.457Z,100050.59
2022-12-08T06:18:53.645Z,100062.69
2022-12-08T06:21:24.357Z,100064.53
2022-12-08T06:23:55.456Z,100058.16
2022-12-08T06:26:24.654Z,100066.72
2022-12-08T06:28:54.059Z,100067.53
2022-12-08T06:31:24.712Z,100076.66
2022-12-08T06:33:54.979Z,100082.91
2022-12-08T06:36:27.953Z,100073.84
2022-12-08T06:38:57.217Z,100076.97
2022-12-08T06:41:26.896Z,100072.69
2022-12-08T06:43:58.408Z,100073.81
2022-12-08T06:46:27.877Z,100071.53
2022-12-08T06:48:56.846Z,100069.38
2022-12-08T06:51:27.178Z,100070.94
2022-12-08T06:53:56.321Z,100071.75
2022-12-08T06:56:28.080Z,100065.78
2022-12-08T06:58:57.082Z,100061.44
2022-12-08T07:01:26.304Z,100063.06
2022-12-08T07:03:55.429Z,100068.09
2022-12-08T07:06:26.766Z,100058.91
2022-12-08T07:08:55.966Z,100058.19
2022-12-08T07:11:25.565Z,100053.44
2022-12-08T07:13:56.754Z,100055.63
2022-12-08T07:16:26.082Z,100051.81
2022-12-08T07:18:55.207Z,100051.97
2022-12-08T07:21:24.283Z,100056.09
2022-12-08T07:23:57.829Z,100043.38
2022-12-08T07:26:28.052Z,100052.53
2022-12-08T07:28:57.116Z,100048.41
2022-12-08T07:31:28.576Z,100045.13
2022-12-08T07:33:58.779Z,100047.78
2022-12-08T07:36:29.031Z,100050.63
2022-12-08T07:38:59.899Z,100043.19
2022-12-08T07:41:29.137Z,100036.75
2022-12-08T07:43:58.267Z,100035.78
2022-12-08T07:46:28.068Z,100025.50
2022-12-08T07:48:57.570Z,100042.69
2022-12-08T07:51:26.759Z,100047.72
2022-12-08T07:53:56.010Z,100034.81
2022-12-08T07:56:26.547Z,100038.25
2022-12-08T07:58:55.553Z,100034.97
2022-12-08T08:01:27.249Z,100037.44
2022-12-08T08:03:58.507Z,100040.41
2022-12-08T08:06:27.674Z,100029.53
2022-12-08T08:08:56.622Z,100024.44
2022-12-08T08:11:27.099Z,100017.88
2022-12-08T08:13:56.167Z,100029.94
2022-12-08T08:16:25.685Z,100021.22
2022-12-08T08:18:54.822Z,100013.66
2022-12-08T08:24:13.243Z,100007.06
2022-12-08T08:26:44.261Z,100004.25
2022-12-08T08:29:13.324Z,100019.53
2022-12-08T08:31:42.404Z,100013.13
2022-12-08T08:34:12.807Z,100003.31
2022-12-08T08:36:41.880Z,100008.38
2022-12-08T08:39:10.951Z,100008.59
2022-12-08T08:41:40.422Z,100008.81
2022-12-08T08:44:10.845Z,100008.59
2022-12-08T08:46:39.997Z,99998.22
2022-12-08T08:49:09.237Z,100003.94
2022-12-08T08:51:38.505Z,100001.66
2022-12-08T08:54:07.683Z,100010.69
2022-12-08T08:56:36.721Z,99999.66
2022-12-08T08:59:05.699Z,100004.72
2022-12-08T09:01:36.173Z,100000.06
2022-12-08T09:04:05.305Z,100003.09
2022-12-08T09:06:34.522Z,100001.78
2022-12-08T09:09:03.550Z,99997.81
2022-12-08T09:11:33.873Z,99997.66
2022-12-08T09:14:02.926Z,99995.78
2022-12-08T09:16:34.149Z,100001.28
2022-12-08T09:19:07.971Z,99994.34
2022-12-08T09:21:37.819Z,99998.31
2022-12-08T09:24:08.410Z,100003.00
2022-12-08T09:26:37.442Z,100003.41
2022-12-08T09:29:06.568Z,100007.88
2022-12-08T09:31:35.655Z,99993.34
2022-12-08T09:34:06.121Z,100005.25
2022-12-08T09:36:36.595Z,100003.72
2022-12-08T09:39:05.610Z,99998.75
2022-12-08T09:41:43.304Z,99984.75
2022-12-08T09:44:57.408Z,99987.31
2022-12-08T09:47:35.488Z,99985.91
2022-12-08T09:50:13.654Z,99984.97
2022-12-08T09:52:48.182Z,99984.75
2022-12-08T09:55:23.848Z,99973.44
2022-12-08T09:58:01.304Z,99977.59
2022-12-08T10:00:30.700Z,99968.88
2022-12-08T10:03:00.269Z,99974.41
2022-12-08T10:05:33.344Z,99967.72
2022-12-08T10:08:13.541Z,99960.38
2022-12-08T10:10:53.489Z,99969.16
2022-12-08T10:13:29.729Z,99948.66
2022-12-08T10:16:15.262Z,99952.09
2022-12-08T10:18:48.230Z,99960.63
2022-12-08T10:21:20.600Z,99959.28
2022-12-08T10:23:54.574Z,99953.28
2022-12-08T10:26:23.772Z,99968.22
2022-12-08T10:28:53.013Z,99963.16
2022-12-08T10:31:24.417Z,99962.44
2022-12-08T10:33:59.638Z,99965.38
2022-12-08T10:36:48.303Z,99967.31
2022-12-08T10:39:36.959Z,99956.06
2022-12-08T10:42:18.438Z,99970.31
2022-12-08T10:45:02.030Z,99966.16
2022-12-08T10:47:37.950Z,99964.09
2022-12-08T10:50:19.398Z,99962.91
2022-12-08T10:52:56.795Z,99962.00
2022-12-08T10:55:28.172Z,99969.38
2022-12-08T10:57:57.508Z,99979.00
2022-12-08T11:00:29.053Z,99973.53
2022-12-08T11:03:00.703Z,99973.53
2022-12-08T11:05:34.870Z,99979.97
2022-12-08T11:08:06.028Z,99986.22
2022-12-08T11:10:39.296Z,99985.94
2022-12-08T11:13:19.810Z,99988.47
2022-12-08T11:15:49.048Z,99973.06
2022-12-08T11:18:28.879Z,99989.22
2022-12-08T11:21:02.004Z,99974.91
2022-12-08T11:23:31.735Z,99969.41
2022-12-08T11:26:07.543Z,99965.25
2022-12-08T11:28:36.714Z,99969.84
2022-12-08T11:31:23.771Z,99964.59
2022-12-08T11:33:54.208Z,99958.41
2022-12-08T11:36:26.868Z,99965.25
2022-12-08T11:39:01.599Z,99954.63
2022-12-08T11:41:38.038Z,99957.19
2022-12-08T11:44:20.640Z,99953.09
2022-12-08T11:46:57.031Z,99949.19
2022-12-08T11:49:34.701Z,99934.41
2022-12-08T11:52:12.285Z,99934.38
2022-12-08T11:54:46.677Z,99941.50
2022-12-08T11:57:20.741Z,99948.66
2022-12-08T11:59:51.424Z,99945.88
2022-12-08T12:02:22.830Z,99954.41
2022-12-08T12:04:56.458Z,99945.88
2022-12-08T12:07:54.246Z,99949.56
2022-12-08T12:10:42.172Z,99959.94
2022-12-08T12:13:34.158Z,99951.88
2022-12-08T12:16:30.462Z,99944.75
2022-12-08T12:19:01.528Z,99953.91
2022-12-08T12:21:35.882Z,99957.84
2022-12-08T12:24:08.090Z,99948.63
2022-12-08T12:26:39.174Z,99939.91
2022-12-08T12:29:17.014Z,99958.75
2022-12-08T12:31:53.338Z,99958.53
2022-12-08T12:34:26.269Z,99962.44
2022-12-08T12:36:57.852Z,99959.25
2022-12-08T12:39:30.864Z,99970.97
2022-12-08T12:42:01.877Z,99965.66
2022-12-08T12:44:43.553Z,99964.97
2022-12-08T12:47:37.327Z,99965.22
2022-12-08T12:50:09.320Z,99973.03
2022-12-08T12:52:42.686Z,99980.41
2022-12-08T12:55:44.891Z,99981.31
2022-12-08T12:58:39.312Z,99977.19
2022-12-08T13:01:57.128Z,99976.97
2022-12-08T13:04:34.305Z,99975.34
2022-12-08T13:07:03.942Z,99979.50
2022-12-08T13:09:36.877Z,99983.16
2022-12-08T13:12:11.580Z,99983.16
2022-12-08T13:14:48.183Z,99978.59
2022-12-08T13:17:25.685Z,99990.09
2022-12-08T13:19:58.894Z,100007.13
2022-12-08T13:23:02.537Z,100006.44
2022-12-08T13:25:54.311Z,99993.78
2022-12-08T13:28:28.983Z,99994.72
2022-12-08T13:30:59.865Z,99992.84
2022-12-08T13:33:33.599Z,99994.72
2022-12-08T13:36:23.892Z,99992.84
2022-12-08T13:38:58.156Z,99997.91
2022-12-08T13:41:35.920Z,100002.03
2022-12-08T13:45:11.356Z,99996.53
2022-12-08T13:47:33.522Z,99994.72
2022-12-08T13:58:51.370Z,99986.50
2022-12-08T14:01:23.301Z,99986.97
2022-12-08T14:06:50.183Z,99985.59
2022-12-08T14:09:25.079Z,99991.63
2022-12-08T14:11:58.466Z,99992.06
2022-12-08T14:15:01.291Z,99984.72
2022-12-08T14:17:25.276Z,99983.31
2022-12-08T14:19:56.847Z,99988.81
2022-12-08T14:22:26.392Z,99986.50
2022-12-08T14:24:59.515Z,99986.50
2022-12-08T14:27:33.770Z,99980.03
2022-12-08T14:30:07.576Z,99986.72
2022-12-08T14:32:44.344Z,99986.97
2022-12-08T14:35:21.226Z,99988.13
2022-12-08T14:37:54.937Z,99989.50
2022-12-08T14:40:35.320Z,99983.09
2022-12-08T14:43:16.518Z,99993.44
2022-12-08T14:45:50.837Z,99995.78
2022-12-08T14:48:25.522Z,100002.66
2022-12-08T14:51:05.585Z,100002.22
2022-12-08T14:53:43.035Z,99998.50
2022-12-08T14:56:21.688Z,100000.56
2022-12-08T14:59:02.631Z,100008.66
2022-12-08T15:01:32.414Z,100007.28
2022-12-08T15:04:09.888Z,100020.16
2022-12-08T15:06:39.589Z,100013.72
2022-12-08T15:09:19.059Z,100024.75
2022-12-08T15:12:02.130Z,100018.34
2022-12-08T15:14:34.208Z,100022.72
2022-12-08T15:17:03.470Z,100026.66
2022-12-08T15:19:34.238Z,100023.00
2022-12-08T15:22:13.398Z,100024.34
2022-12-08T15:24:42.498Z,100028.50
2022-12-08T15:27:18.612Z,100042.34
2022-12-08T15:29:48.965Z,100039.09
2022-12-08T15:32:20.344Z,100037.50
2022-12-08T15:34:49.723Z,100034.53
2022-12-08T15:37:23.016Z,100042.81
2022-12-08T15:39:53.013Z,100041.19
2022-12-08T15:42:23.570Z,100048.31
2022-12-08T15:44:52.873Z,100042.41
2022-12-08T15:47:24.028Z,100041.91
2022-12-08T15:49:53.886Z,100045.84
2022-12-08T15:52:25.766Z,100053.44
2022-12-08T15:54:55.054Z,100058.06
2022-12-08T16:00:51.809Z,100055.34
2022-12-08T16:09:13.097Z,100061.34
2022-12-08T16:12:07.732Z,100063.16
2022-12-08T16:17:33.174Z,100058.09
2022-12-08T16:20:03.808Z,100043.44
2022-12-08T16:22:56.757Z,100048.50
2022-12-08T16:25:36.316Z,100043.44
2022-12-08T16:28:52.009Z,100051.72
2022-12-08T16:31:13.331Z,100052.41
2022-12-08T16:33:43.920Z,100054.47
2022-12-08T16:36:12.938Z,100049.41
2022-12-08T16:38:42.088Z,100045.25
2022-12-08T16:41:32.693Z,100047.13
2022-12-08T16:44:03.898Z,100047.13
2022-12-08T16:46:36.107Z,100050.81
2022-12-08T16:49:06.274Z,100048.75
2022-12-08T16:51:35.812Z,100048.53
2022-12-08T16:54:05.086Z,100043.91
2022-12-08T16:56:34.471Z,100043.44
2022-12-08T16:59:07.055Z,100048.06
2022-12-08T17:01:38.545Z,100051.78
2022-12-08T17:04:30.429Z,100042.78
2022-12-08T17:07:00.404Z,100042.34
2022-12-08T17:09:30.915Z,100038.88
2022-12-08T17:12:03.675Z,100043.72
2022-12-08T17:14:35.788Z,100042.78
2022-12-08T17:17:06.568Z,100043.03
2022-12-08T17:19:36.105Z,100041.41
2022-12-08T17:22:05.796Z,100036.56
2022-12-08T17:24:38.295Z,100048.09
2022-12-08T17:27:07.769Z,100049.28
2022-12-08T17:29:38.121Z,100056.41
2022-12-08T17:32:09.727Z,100054.09
2022-12-08T17:34:39.072Z,100053.19
2022-12-08T17:37:08.200Z,100053.19
2022-12-08T17:39:38.690Z,100046.03
2022-12-08T17:42:08.089Z,100048.38
2022-12-08T17:44:37.270Z,100050.91
2022-12-08T17:47:08.272Z,100053.66
2022-12-08T17:49:37.397Z,100051.13
2022-12-08T17:52:08.187Z,100048.56
2022-12-08T17:54:37.892Z,100057.38
2022-12-08T17:57:07.050Z,100067.94
2022-12-08T17:59:36.663Z,100065.19
2022-12-08T18:02:05.840Z,100065.66
2022-12-08T18:04:36.379Z,100070.31
2022-12-08T18:07:05.507Z,100071.66
2022-12-08T18:09:34.761Z,100063.34
2022-12-08T18:12:03.916Z,100076.72
2022-12-08T18:14:33.057Z,100074.44
2022-12-08T18:17:02.767Z,100072.63
2022-12-08T18:19:32.609Z,100071.66
2022-12-08T18:22:03.225Z,100066.16
2022-12-08T18:24:32.544Z,100078.59
2022-12-08T18:27:01.955Z,100088.06
2022-12-08T18:29:31.065Z,100078.59
2022-12-08T18:32:00.842Z,100076.31
2022-12-08T18:34:30.206Z,100077.91
2022-12-08T18:36:59.422Z,100081.41
2022-12-08T18:39:31.697Z,100082.53
2022-12-08T18:42:02.736Z,100083.25
2022-12-08T18:44:31.737Z,100092.69
2022-12-08T18:47:00.920Z,100092.25
2022-12-08T18:49:29.955Z,100086.47
2022-12-08T18:51:59.045Z,100081.63
2022-12-08T18:54:57.782Z,100090.63
2022-12-08T18:57:20.359Z,100087.16
2022-12-08T18:59:54.225Z,100089.22
2022-12-08T19:02:23.938Z,100095.69
2022-12-08T19:04:56.825Z,100097.56
2022-12-08T19:07:26.038Z,100101.72
2022-12-08T19:09:56.541Z,100099.19
2022-12-08T19:12:25.497Z,100098.50
2022-12-08T19:14:54.691Z,100092.03
2022-12-08T19:17:23.740Z,100092.03
2022-12-08T19:19:53.083Z,100090.19
2022-12-08T19:22:22.101Z,100092.50
2022-12-08T19:24:51.259Z,100094.34
2022-12-08T19:27:21.721Z,100094.34
2022-12-08T19:29:50.994Z,100094.34
2022-12-08T19:32:20.180Z,100099.88
2022-12-08T19:34:49.667Z,100098.03
2022-12-08T19:37:18.746Z,100098.97
2022-12-08T19:40:05.921Z,100102.69
2022-12-08T19:42:54.070Z,100092.53
2022-12-08T19:45:23.662Z,100085.13
2022-12-08T19:47:53.184Z,100101.28
2022-12-08T19:50:37.692Z,100099.19
2022-12-08T19:53:08.448Z,100099.88
2022-12-08T19:55:38.216Z,100110.50
2022-12-08T19:58:09.703Z,100106.59
2022-12-08T20:00:40.253Z,100110.06
2022-12-08T20:03:09.608Z,100113.75
2022-12-08T20:05:41.944Z,100116.50
2022-12-08T20:08:11.416Z,100109.34
2022-12-08T20:10:43.383Z,100123.41
2022-12-08T20:13:36.610Z,100124.59
2022-12-08T20:16:06.111Z,100121.34
2022-12-08T20:18:36.513Z,100120.66
2022-12-08T20:21:06.099Z,100118.38
2022-12-08T20:23:35.810Z,100119.06
2022-12-08T20:26:06.130Z,100115.38
2022-12-08T20:28:37.311Z,100112.16
2022-12-08T20:31:06.996Z,100119.31
2022-12-08T20:33:36.351Z,100111.00
2022-12-08T20:36:07.603Z,100116.56
2022-12-08T20:38:37.015Z,100108.94
2022-12-08T20:41:10.169Z,100110.78
2022-12-08T20:43:41.224Z,100119.78
2022-12-08T20:46:11.157Z,100116.09
2022-12-08T20:48:40.511Z,100117.75
2022-12-08T20:51:09.813Z,100114.25
2022-12-08T20:53:38.882Z,100113.81
2022-12-08T20:56:09.134Z,100112.88
2022-12-08T20:58:38.152Z,100129.50
2022-12-08T21:01:12.371Z,100124.41
2022-12-08T21:03:42.254Z,100116.31
2022-12-08T21:06:11.894Z,100117.28
2022-12-08T21:08:41.340Z,100113.81
2022-12-08T21:11:11.742Z,100116.78
2022-12-08T21:13:41.019Z,100110.13
2022-12-08T21:16:15.233Z,100109.66
2022-12-08T21:18:44.333Z,100105.47
2022-12-08T21:21:15.762Z,100098.78
2022-12-08T21:23:45.310Z,100110.34
2022-12-08T21:26:16.543Z,100119.13
2022-12-08T21:28:45.961Z,100096.50
2022-12-08T21:31:18.966Z,100103.66
2022-12-08T21:33:48.230Z,100115.19
2022-12-08T21:36:19.746Z,100115.66
2022-12-08T21:38:49.367Z,100117.97
2022-12-08T21:41:40.964Z,100118.91
2022-12-08T21:44:12.596Z,100119.84
2022-12-08T21:46:43.720Z,100112.66
2022-12-08T21:49:12.965Z,100105.03
2022-12-08T21:51:42.813Z,100111.03
2022-12-08T21:54:18.347Z,100102.97
2022-12-08T21:56:50.457Z,100110.56
2022-12-08T21:59:20.962Z,100105.72
2022-12-08T22:01:51.780Z,100110.59
2022-12-08T22:04:22.690Z,100108.28
2022-12-08T22:06:53.300Z,100114.06
2022-12-08T22:09:23.771Z,100117.53
2022-12-08T22:11:53.046Z,100117.28
2022-12-08T22:14:22.136Z,100111.97
2022-12-08T22:16:52.642Z,100113.38
2022-12-08T22:19:22.201Z,100111.25
2022-12-08T22:21:51.437Z,100106.44
2022-12-08T22:24:20.601Z,100117.50
2022-12-08T22:26:49.954Z,100108.06
2022-12-08T22:29:19.508Z,100114.28
2022-12-08T22:31:48.793Z,100114.97
2022-12-08T22:34:19.544Z,100116.34
2022-12-08T22:36:49.132Z,100124.69
2022-12-08T22:39:19.190Z,100132.06
2022-12-08T22:41:48.485Z,100129.97
2022-12-08T22:44:17.561Z,100132.75
2022-12-08T22:46:46.732Z,100135.53
2022-12-08T22:49:15.857Z,100139.00
2022-12-08T22:51:46.498Z,100142.69
2022-12-08T22:54:15.549Z,100143.84
2022-12-08T22:56:44.579Z,100147.28
2022-12-08T22:59:13.666Z,100139.47
2022-12-08T23:01:42.995Z,100145.47
2022-12-08T23:04:17.408Z,100149.63
2022-12-08T23:06:48.324Z,100151.47
2022-12-08T23:09:17.253Z,100150.53
2022-12-08T23:11:46.380Z,100146.16
2022-12-08T23:14:15.362Z,100147.31
2022-12-08T23:16:44.937Z,100137.81
2022-12-08T23:19:14.814Z,100143.63
2022-12-08T23:21:43.802Z,100145.22
2022-12-08T23:24:14.561Z,100151.47
2022-12-08T23:26:44.354Z,100147.56
2022-12-08T23:29:13.479Z,100151.69
2022-12-08T23:31:42.577Z,100137.81
2022-12-08T23:34:12.163Z,100128.13
2022-12-08T23:36:41.412Z,100135.75
2022-12-08T23:39:13.321Z,100134.38
2022-12-08T23:41:43.226Z,100134.16
2022-12-08T23:44:12.577Z,100137.81
2022-12-08T23:46:42.177Z,100136.19
2022-12-08T23:49:11.470Z,100143.38
2022-12-08T23:51:40.457Z,100143.38
2022-12-08T23:54:09.777Z,100139.91
2022-12-08T23:56:40.260Z,100143.38
2022-12-08T23:59:09.402Z,100146.59
